Louisville, KY

6:25 PM EST on February 26, 2015 (GMT -0500)
APRSWXNET Louisville KY US | Change Station
CLOSE
Current Station
Personal Weather Station
Location: Louisville, KY
Elevation: 492 ft
Nearby Weather Stations

Elev 492 ft 38.22 °N, 85.75 °W | Updated 25 minutes ago

Overcast
Overcast
24 °F
Feels Like 18 °F
N
5
Wind Variable Wind from North
Gusts 14.0 mph

Today
High -- | Low -- °F
--% Chance of Precip.
Yesterday
High -- | Low -- °F
Precip. -- in
7:19 AM 6:33 PM
Waxing Gibbous, 63% visible
Pressure 30.23 in
Visibility 6.0 miles
Clouds Overcast 6000 ft
Windchill 18 °F
Dew Point 14 °F
Humidity 66%
Rainfall 0.00 in
Snow Depth Not available.
UV 0 out of 12
Pollen 1.20 out of 12
Air Quality Not available.
Flu Activity Not available.
METAR KSDF 262256Z 36014KT 6SM -SN OVC060 M04/M11 A3021 RMK AO2 SLP235 P0000 T10391106

More Conditions Fewer Conditions

Pressure 30.23 in
Visibility 6.0 miles
Clouds Overcast 6000 ft
Windchill 18 °F
Dew Point 14 °F
Humidity 66%
Rainfall 0.00 in
Snow Depth Not available.
UV 0 out of 12
Pollen 1.20 out of 12
Air Quality Not available.
Flu Activity Not available.
METAR KSDF 262256Z 36014KT 6SM -SN OVC060 M04/M11 A3021 RMK AO2 SLP235 P0000 T10391106

More Conditions Fewer Conditions

10-Day Weather Forecast

Almanac

Astronomy

Feb. 26, 2015 Rise Set
Actual Time
Civil Twilight
Nautical Twilight
Astronomical Twilight
Moon
Length of Visible Light
Length of Day
Tomorrow will be .
, % of the Moon is Illuminated

Today's Extremes

State Highs State Lows

Community

WunderPhotos

Upload Photos

1,800,526 photos uploaded!

WunderBlogs® & News

Nearby

Air Quality

  Air Quality AQ Index Pollutant
Not available.

Snow Depth

Station Depth Elevation

Earthquake Activity

City Distance Mag. Time & Date
Minimum magnitude displayed is 2.5.

Coastal Water Temperatures

Place Temperature

Nearby Weather Stations